Time;durP1;ratioP1;P1;durP2;ratioP2;P2;SDS_P1;SDS_P2;PMS_P1;PMS_P2;Temp;Humidity;BMP_temperature;BMP_pressure;BME280_temperature;BME280_humidity;BME280_pressure;Samples;Min_cycle;Max_cycle;Signal;HPM_P1;HPM_P2
2024/01/05 00:00:49;;;;;;;3.45;1.60;;;;;;;7.43;58.48;98456.94;5107443;28;20040;-72
2024/01/05 00:03:15;;;;;;;3.08;2.03;;;;;;;7.42;58.54;98460.50;5107356;28;20063;-71
2024/01/05 00:05:43;;;;;;;4.38;2.15;;;;;;;7.43;58.61;98470.97;5107336;28;20089;-71
2024/01/05 00:08:10;;;;;;;2.95;1.80;;;;;;;7.40;58.83;98462.38;5107283;28;20044;-71
2024/01/05 00:10:37;;;;;;;4.72;2.35;;;;;;;7.38;58.82;98470.38;5107539;28;20048;-71
2024/01/05 00:13:04;;;;;;;4.95;1.70;;;;;;;7.34;59.01;98464.44;5106892;28;20360;-71
2024/01/05 00:15:30;;;;;;;3.95;1.90;;;;;;;7.35;58.88;98462.63;5106818;28;20093;-72
2024/01/05 00:17:57;;;;;;;2.90;2.05;;;;;;;7.36;58.93;98459.91;5107064;28;20070;-71
2024/01/05 00:20:23;;;;;;;3.38;2.10;;;;;;;7.00;58.65;98398.69;5089516;28;20334;-71
2024/01/05 00:22:51;;;;;;;2.83;1.80;;;;;;;7.38;58.77;98470.38;5089449;28;20039;-71
2024/01/05 00:25:21;;;;;;;3.35;1.90;;;;;;;7.37;58.71;98466.88;5106685;28;20097;-71
2024/01/05 00:27:47;;;;;;;4.25;2.13;;;;;;;7.37;58.71;98463.41;5106763;28;20174;-71
2024/01/05 00:30:15;;;;;;;4.88;2.20;;;;;;;7.37;58.79;98463.41;5088826;28;20035;-71
2024/01/05 00:32:42;;;;;;;3.50;1.90;;;;;;;7.34;58.76;98469.69;5106569;28;20051;-71
2024/01/05 00:35:09;;;;;;;4.93;2.65;;;;;;;7.37;58.77;98473.94;5107072;28;20097;-71
2024/01/05 00:37:35;;;;;;;3.90;2.08;;;;;;;7.33;58.95;98469.78;5088942;28;20040;-71
2024/01/05 00:40:04;;;;;;;2.97;1.70;;;;;;;7.36;58.84;98469.63;5106728;28;20250;-71
2024/01/05 00:42:31;;;;;;;3.65;2.00;;;;;;;7.36;58.71;98472.25;5106864;28;20043;-71
2024/01/05 00:44:57;;;;;;;3.08;1.92;;;;;;;7.35;58.77;98474.03;5106618;28;20123;-72
2024/01/05 00:47:24;;;;;;;3.28;2.50;;;;;;;6.95;58.63;98404.22;5106326;28;20048;-71
2024/01/05 00:49:51;;;;;;;2.92;2.03;;;;;;;7.31;58.90;98472.47;5106262;28;20208;-71
2024/01/05 00:52:18;;;;;;;3.03;2.00;;;;;;;7.32;58.72;98474.16;5106434;28;20040;-71
2024/01/05 00:54:44;;;;;;;2.80;1.92;;;;;;;7.32;58.71;98474.16;5106130;28;20093;-71
2024/01/05 00:57:12;;;;;;;3.17;1.90;;;;;;;7.28;58.93;98475.28;5106733;28;20169;-71
2024/01/05 00:59:39;;;;;;;3.63;2.17;;;;;;;7.31;58.99;98474.25;5106428;28;20040;-70
2024/01/05 01:02:06;;;;;;;3.15;1.88;;;;;;;7.27;58.95;98468.31;5106025;28;20164;-72
2024/01/05 01:04:32;;;;;;;4.88;2.17;;;;;;;7.28;58.87;98475.28;5106071;28;20043;-71
2024/01/05 01:06:59;;;;;;;3.90;1.65;;;;;;;7.30;58.83;98472.56;5106058;28;20093;-71
2024/01/05 01:09:26;;;;;;;3.28;2.15;;;;;;;7.10;58.70;98436.78;5106674;28;20048;-70
2024/01/05 01:11:52;;;;;;;3.28;2.17;;;;;;;7.31;58.57;98464.56;5106028;28;20044;-71
2024/01/05 01:14:20;;;;;;;5.13;2.40;;;;;;;7.29;58.75;98461.16;5106472;28;20040;-71
2024/01/05 01:16:47;;;;;;;6.80;2.08;;;;;;;7.27;58.78;98462.19;5106516;28;20048;-71
2024/01/05 01:19:14;;;;;;;4.25;2.40;;;;;;;7.27;58.76;98465.66;5106423;28;20109;-71
2024/01/05 01:21:40;;;;;;;5.22;2.80;;;;;;;7.26;58.73;98461.34;5106263;28;20093;-71
2024/01/05 01:24:07;;;;;;;3.60;2.30;;;;;;;7.26;58.81;98460.50;5105807;28;20051;-71
2024/01/05 01:26:34;;;;;;;4.15;2.30;;;;;;;7.28;58.69;98462.09;5106043;28;20040;-71
2024/01/05 01:29:00;;;;;;;3.72;2.65;;;;;;;7.28;58.64;98466.53;5105824;28;20093;-71
2024/01/05 01:31:29;;;;;;;4.32;2.05;;;;;;;7.27;58.71;98457.78;5105714;28;20048;-71
2024/01/05 01:33:56;;;;;;;3.92;2.10;;;;;;;7.28;58.50;98472.66;5106003;28;20299;-71
2024/01/05 01:36:23;;;;;;;4.28;1.90;;;;;;;7.07;58.52;98436.94;5105863;28;20044;-70
2024/01/05 01:38:50;;;;;;;3.28;1.75;;;;;;;7.21;58.87;98471.28;5105867;28;20052;-71
2024/01/05 01:41:16;;;;;;;3.88;1.80;;;;;;;7.23;58.77;98472.06;5105761;28;20040;-71
2024/01/05 01:43:47;;;;;;;3.17;2.00;;;;;;;7.23;58.86;98472.06;5106120;28;20044;-71
2024/01/05 01:46:14;;;;;;;3.75;2.38;;;;;;;7.23;58.88;98466.78;5105757;28;20105;-71
2024/01/05 01:48:44;;;;;;;2.60;1.70;;;;;;;7.21;58.81;98473.91;5107086;28;20044;-71
2024/01/05 01:51:12;;;;;;;4.40;2.17;;;;;;;7.24;58.62;98484.28;5109512;28;20071;-71
2024/01/05 01:53:39;;;;;;;3.25;1.70;;;;;;;7.22;58.83;98480.03;5110149;28;20082;-70
2024/01/05 01:56:10;;;;;;;5.60;2.28;;;;;;;7.22;58.78;98487.94;5110128;28;20040;-71
2024/01/05 01:58:37;;;;;;;3.05;1.70;;;;;;;7.19;58.85;98491.59;5109787;28;20051;-70
2024/01/05 02:01:05;;;;;;;3.35;1.92;;;;;;;7.16;58.96;98490.91;5109974;28;20051;-71
2024/01/05 02:03:32;;;;;;;3.00;1.92;;;;;;;5.91;58.91;98279.19;5109746;28;20051;-71
2024/01/05 02:06:00;;;;;;;5.07;1.80;;;;;;;7.18;58.94;98489.06;5109924;28;20040;-71
2024/01/05 02:08:28;;;;;;;3.05;2.03;;;;;;;7.18;58.85;98479.34;5109594;28;20056;-71
2024/01/05 02:10:54;;;;;;;4.13;2.05;;;;;;;7.17;58.86;98477.66;5109557;28;20101;-71
2024/01/05 02:13:21;;;;;;;2.92;2.00;;;;;;;7.18;58.81;98475.88;5091445;28;20115;-71
2024/01/05 02:15:48;;;;;;;4.78;1.80;;;;;;;7.16;58.80;98478.59;5109209;28;20051;-71
2024/01/05 02:18:16;;;;;;;3.20;2.00;;;;;;;7.14;58.92;98477.81;5092140;28;20039;-70
2024/01/05 02:20:44;;;;;;;4.38;2.00;;;;;;;7.16;58.81;98481.22;5109310;28;20085;-70
2024/01/05 02:23:25;;;;;;;7.18;3.50;;;;;;;7.13;58.88;98476.13;5109299;28;20058;-71
2024/01/05 02:25:52;;;;;;;4.20;2.38;;;;;;;7.11;58.98;98469.25;5109289;28;20089;-71
2024/01/05 02:28:19;;;;;;;4.07;2.10;;;;;;;7.10;58.91;98481.56;5109224;28;20051;-71
2024/01/05 02:30:46;;;;;;;4.07;2.10;;;;;;;7.10;59.03;98467.53;5108886;28;20316;-71
2024/01/05 02:33:12;;;;;;;3.83;1.80;;;;;;;6.85;59.21;98432.00;5091956;28;20097;-71
2024/01/05 02:35:39;;;;;;;4.53;2.42;;;;;;;7.01;59.28;98453.09;5109106;28;20062;-71
2024/01/05 02:38:06;;;;;;;3.75;1.85;;;;;;;7.00;59.17;98454.88;5109050;28;20044;-70
2024/01/05 02:40:34;;;;;;;3.65;1.85;;;;;;;6.81;59.39;98422.56;5108997;28;20040;-71
2024/01/05 02:43:01;;;;;;;3.65;2.10;;;;;;;6.98;59.39;98453.25;5109364;28;20039;-71
2024/01/05 02:45:27;;;;;;;3.63;1.90;;;;;;;6.97;59.46;98447.13;5108949;28;20044;-71
2024/01/05 02:47:54;;;;;;;4.82;2.10;;;;;;;6.95;59.46;98448.16;5109471;28;20039;-71
2024/01/05 02:50:21;;;;;;;2.97;1.90;;;;;;;6.40;59.26;98359.81;5108433;28;20208;-70
2024/01/05 02:52:48;;;;;;;2.75;1.85;;;;;;;6.91;59.42;98444.00;5108811;28;20052;-70
2024/01/05 02:55:14;;;;;;;3.95;2.50;;;;;;;6.74;59.49;98419.38;5108518;28;20242;-70
2024/01/05 02:57:42;;;;;;;4.25;2.30;;;;;;;6.86;59.83;98441.59;5091167;28;20040;-71
2024/01/05 03:00:10;;;;;;;4.68;2.30;;;;;;;6.84;59.66;98446.13;5090376;28;20090;-71
2024/01/05 03:02:36;;;;;;;4.45;2.50;;;;;;;6.64;59.89;98417.34;5108876;28;20264;-71
2024/01/05 03:05:04;;;;;;;7.15;2.95;;;;;;;6.81;59.74;98442.78;5108574;28;20105;-70
2024/01/05 03:07:31;;;;;;;4.47;2.58;;;;;;;6.82;59.65;98444.50;5109051;28;20284;-70
2024/01/05 03:09:58;;;;;;;4.97;2.28;;;;;;;6.79;59.87;98442.00;5108714;28;20105;-71
2024/01/05 03:12:24;;;;;;;4.80;2.80;;;;;;;6.69;59.69;98431.97;5108394;28;20285;-71
2024/01/05 03:14:52;;;;;;;3.92;2.33;;;;;;;6.81;59.80;98445.44;5108024;28;20047;-71
2024/01/05 03:17:19;;;;;;;4.70;2.28;;;;;;;6.58;60.27;98401.88;5108539;28;20101;-70
2024/01/05 03:19:45;;;;;;;4.43;2.33;;;;;;;6.73;60.11;98436.13;5107938;28;20040;-70
2024/01/05 03:22:12;;;;;;;3.67;2.33;;;;;;;6.75;59.93;98438.69;5107810;28;20044;-71
2024/01/05 03:24:40;;;;;;;3.03;2.00;;;;;;;6.77;59.89;98428.91;5108180;28;20052;-71
2024/01/05 03:27:08;;;;;;;2.70;2.10;;;;;;;6.77;59.91;98426.28;5108079;28;20107;-71
2024/01/05 03:29:35;;;;;;;3.60;2.10;;;;;;;6.80;59.77;98433.16;5108356;28;20059;-70
2024/01/05 03:32:03;;;;;;;3.47;1.70;;;;;;;6.77;59.79;98431.53;5107493;28;20074;-71
2024/01/05 03:34:30;;;;;;;3.97;2.20;;;;;;;6.79;59.79;98431.47;5107962;28;20055;-71
2024/01/05 03:36:57;;;;;;;4.07;2.20;;;;;;;6.74;59.90;98426.44;5107873;28;20059;-71
2024/01/05 03:39:23;;;;;;;3.85;2.13;;;;;;;6.73;60.04;98430.84;5107864;28;20173;-71
2024/01/05 03:41:50;;;;;;;2.83;1.88;;;;;;;6.73;60.03;98433.50;5107738;28;20048;-71
2024/01/05 03:44:20;;;;;;;4.13;2.25;;;;;;;6.72;60.04;98431.78;5108132;28;20052;-71
2024/01/05 03:46:47;;;;;;;3.63;1.90;;;;;;;6.75;59.92;98436.03;5107403;28;20204;-71
2024/01/05 03:49:16;;;;;;;3.35;2.00;;;;;;;6.73;59.95;98432.66;5107125;28;20250;-71
2024/01/05 03:51:43;;;;;;;3.60;2.10;;;;;;;6.75;59.99;98436.03;5107594;28;20059;-71
2024/01/05 03:54:10;;;;;;;3.47;2.10;;;;;;;6.73;60.10;98432.66;5108129;28;20184;-71
2024/01/05 03:56:40;;;;;;;4.50;2.10;;;;;;;6.71;60.12;98426.59;5107234;28;20046;-71
2024/01/05 03:59:07;;;;;;;5.85;2.70;;;;;;;6.68;60.50;98425.00;5107438;28;20115;-71
2024/01/05 04:01:34;;;;;;;4.60;2.22;;;;;;;6.65;60.53;98430.41;5107327;28;20048;-71
2024/01/05 04:04:01;;;;;;;4.53;2.30;;;;;;;6.63;60.50;98424.38;5108195;28;20055;-71
2024/01/05 04:06:29;;;;;;;3.35;2.08;;;;;;;6.66;60.35;98418.97;5107351;28;20107;-71
2024/01/05 04:08:56;;;;;;;3.60;2.10;;;;;;;6.70;60.19;98417.00;5107797;28;20050;-71
2024/01/05 04:11:23;;;;;;;4.15;2.08;;;;;;;6.69;60.22;98418.78;5106296;28;20297;-71
2024/01/05 04:13:50;;;;;;;3.42;2.40;;;;;;;6.65;60.33;98413.78;5107226;28;20048;-71
2024/01/05 04:16:16;;;;;;;3.78;2.10;;;;;;;6.40;60.59;98372.13;5107155;28;20199;-71
2024/01/05 04:18:43;;;;;;;4.97;2.22;;;;;;;6.64;60.57;98409.44;5106806;28;20085;-71
2024/01/05 04:21:11;;;;;;;3.90;1.85;;;;;;;6.58;60.93;98410.63;5088989;28;20045;-71
2024/01/05 04:23:39;;;;;;;4.53;2.03;;;;;;;6.41;60.85;98382.56;5107230;28;20173;-71
2024/01/05 04:26:05;;;;;;;3.63;2.33;;;;;;;6.58;60.88;98413.25;5106986;28;20071;-71
2024/01/05 04:28:32;;;;;;;3.47;2.30;;;;;;;6.57;60.88;98400.19;5106666;28;20081;-71
2024/01/05 04:30:58;;;;;;;8.10;2.80;;;;;;;6.19;61.04;98349.59;5106914;28;20055;-71
2024/01/05 04:33:25;;;;;;;5.25;2.90;;;;;;;6.59;60.88;98400.94;5107137;28;20215;-71
2024/01/05 04:35:52;;;;;;;4.35;2.58;;;;;;;6.53;61.23;98396.84;5088759;28;20097;-71
2024/01/05 04:38:18;;;;;;;5.03;2.63;;;;;;;6.53;61.14;98388.13;5106924;28;20043;-71
2024/01/05 04:40:46;;;;;;;3.38;2.30;;;;;;;6.59;60.95;98385.16;5106720;28;20184;-71
2024/01/05 04:43:13;;;;;;;5.15;2.28;;;;;;;6.59;61.04;98382.50;5106296;28;20090;-71
2024/01/05 04:45:40;;;;;;;4.15;2.40;;;;;;;6.54;60.94;98380.13;5106341;28;20086;-71
2024/01/05 04:48:07;;;;;;;2.95;1.90;;;;;;;6.51;61.13;98369.78;5106326;28;20044;-71
2024/01/05 04:50:33;;;;;;;6.05;2.88;;;;;;;6.49;61.62;98374.25;5106131;28;20063;-70
2024/01/05 04:53:00;;;;;;;3.90;2.40;;;;;;;6.51;61.31;98366.28;5106465;28;20036;-71
2024/01/05 04:55:27;;;;;;;3.78;2.47;;;;;;;6.46;61.81;98366.53;5106474;28;20043;-71
2024/01/05 04:57:54;;;;;;;3.88;2.28;;;;;;;6.47;61.47;98367.38;5106384;28;20205;-71
2024/01/05 05:00:21;;;;;;;3.40;2.30;;;;;;;6.49;61.36;98366.38;5106367;28;20043;-71
2024/01/05 05:02:48;;;;;;;3.65;2.33;;;;;;;6.47;62.17;98373.50;5088861;28;20035;-70
2024/01/05 05:05:15;;;;;;;6.15;3.20;;;;;;;6.46;61.67;98369.16;5106316;28;20052;-71
2024/01/05 05:07:41;;;;;;;5.78;3.00;;;;;;;6.39;62.38;98365.16;5106534;28;20040;-71
2024/01/05 05:10:09;;;;;;;6.65;2.60;;;;;;;6.38;62.26;98366.09;5106188;28;20044;-70
2024/01/05 05:12:36;;;;;;;5.88;3.15;;;;;;;6.33;62.34;98368.97;5106209;28;20056;-71
2024/01/05 05:15:05;;;;;;;6.13;2.95;;;;;;;6.29;62.37;98372.69;5106146;28;20316;-71
2024/01/05 05:17:31;;;;;;;6.03;2.60;;;;;;;6.20;62.44;98375.81;5106131;28;20043;-71
2024/01/05 05:19:58;;;;;;;6.25;2.80;;;;;;;6.20;62.46;98372.34;5106062;28;20063;-71
2024/01/05 05:22:24;;;;;;;5.80;3.40;;;;;;;6.20;62.32;98370.56;5105339;28;20040;-71
2024/01/05 05:24:51;;;;;;;3.88;2.70;;;;;;;6.21;62.14;98366.16;5105690;28;20056;-70
2024/01/05 05:27:18;;;;;;;6.60;2.70;;;;;;;6.21;62.42;98369.63;5106006;28;20064;-71
2024/01/05 05:29:45;;;;;;;5.20;2.80;;;;;;;6.13;62.50;98363.94;5105930;28;20107;-70
2024/01/05 05:32:13;;;;;;;6.85;3.00;;;;;;;6.13;62.49;98368.34;5105940;28;20040;-71
2024/01/05 05:34:41;;;;;;;6.32;2.60;;;;;;;6.12;62.45;98369.28;5105836;28;20101;-70
2024/01/05 05:37:08;;;;;;;4.47;2.40;;;;;;;6.01;62.97;98365.41;5088789;28;20102;-71
2024/01/05 05:39:35;;;;;;;4.68;2.53;;;;;;;6.00;63.05;98382.13;5105868;28;20044;-70
2024/01/05 05:42:01;;;;;;;4.88;3.10;;;;;;;5.92;63.36;98370.31;5087825;28;20040;-71
2024/01/05 05:44:28;;;;;;;4.82;2.78;;;;;;;5.82;63.54;98379.59;5106176;28;20092;-71
2024/01/05 05:46:55;;;;;;;6.45;2.80;;;;;;;5.66;63.83;98390.91;5106142;28;20099;-70
2024/01/05 05:49:23;;;;;;;4.35;2.65;;;;;;;5.62;63.98;98397.25;5105594;28;20117;-70
2024/01/05 05:51:50;;;;;;;6.95;3.13;;;;;;;5.35;64.22;98360.06;5088359;28;20047;-70
2024/01/05 05:54:17;;;;;;;5.18;3.40;;;;;;;5.52;64.36;98393.38;5105418;28;20182;-71
2024/01/05 05:56:43;;;;;;;5.75;3.25;;;;;;;5.43;64.68;98388.56;5087762;28;20048;-70
2024/01/05 05:59:10;;;;;;;6.70;3.40;;;;;;;5.49;64.39;98396.16;5105369;28;20044;-70
2024/01/05 06:01:37;;;;;;;4.97;2.80;;;;;;;5.29;64.24;98357.72;5105658;28;20327;-70
2024/01/05 06:04:05;;;;;;;4.93;3.17;;;;;;;5.44;64.25;98390.28;5105527;28;20071;-70
2024/01/05 06:06:33;;;;;;;5.65;2.90;;;;;;;5.50;64.02;98395.22;5087660;28;20040;-71
2024/01/05 06:09:00;;;;;;;3.95;2.67;;;;;;;5.24;64.09;98345.75;5105594;28;20165;-70
2024/01/05 06:11:27;;;;;;;6.78;2.50;;;;;;;5.51;63.57;98394.28;5105588;28;20078;-70
2024/01/05 06:13:54;;;;;;;4.25;2.20;;;;;;;5.51;63.39;98388.19;5087724;28;20250;-71
2024/01/05 06:16:20;;;;;;;5.13;3.53;;;;;;;5.54;63.21;98383.63;5105232;28;20044;-71
2024/01/05 06:18:48;;;;;;;5.80;2.35;;;;;;;5.49;62.98;98384.78;5105751;28;20048;-70
2024/01/05 06:21:14;;;;;;;3.83;2.60;;;;;;;5.50;62.94;98379.44;5105277;28;20089;-70
2024/01/05 06:23:43;;;;;;;5.78;2.75;;;;;;;5.45;63.01;98387.56;5105121;28;20358;-70
2024/01/05 06:26:09;;;;;;;4.10;2.50;;;;;;;5.51;62.68;98382.94;5087851;28;20044;-71
2024/01/05 06:28:36;;;;;;;5.75;2.60;;;;;;;5.49;62.60;98377.75;5105406;28;20054;-70
2024/01/05 06:31:03;;;;;;;3.22;2.25;;;;;;;5.52;62.42;98382.84;5088221;28;20062;-70
2024/01/05 06:33:30;;;;;;;4.55;2.55;;;;;;;5.47;62.42;98387.50;5105343;28;20048;-71
2024/01/05 06:35:56;;;;;;;5.50;2.30;;;;;;;5.42;62.22;98384.25;5108161;28;20043;-71
2024/01/05 06:38:23;;;;;;;4.88;2.85;;;;;;;5.45;62.21;98377.06;5109379;28;20097;-71
2024/01/05 06:40:51;;;;;;;3.92;2.38;;;;;;;5.45;62.04;98384.09;5109287;28;20342;-71
2024/01/05 06:43:17;;;;;;;5.20;3.97;;;;;;;5.47;62.12;98381.38;5109242;28;20067;-71
2024/01/05 06:45:44;;;;;;;5.10;2.75;;;;;;;5.45;61.97;98373.56;5108916;28;20089;-71
2024/01/05 06:48:11;;;;;;;5.00;2.38;;;;;;;5.47;61.94;98371.72;5108753;28;20048;-70
2024/01/05 06:50:37;;;;;;;3.45;2.40;;;;;;;5.47;61.88;98358.59;5108330;28;20070;-70
2024/01/05 06:53:04;;;;;;;3.53;2.30;;;;;;;5.47;61.83;98358.59;5108467;28;20247;-70
2024/01/05 06:55:31;;;;;;;3.17;2.10;;;;;;;5.26;61.88;98313.22;5108400;28;20048;-70
2024/01/05 06:58:01;;;;;;;5.05;2.55;;;;;;;5.48;61.90;98341.03;5108390;28;20327;-71
2024/01/05 07:00:28;;;;;;;5.53;2.45;;;;;;;4.93;61.87;98280.75;5109165;28;20177;-70
2024/01/05 07:02:54;;;;;;;5.70;2.47;;;;;;;5.51;61.64;98348.78;5108713;28;20325;-70
2024/01/05 07:05:21;;;;;;;4.18;3.03;;;;;;;5.51;61.72;98343.50;5108509;28;20067;-70
2024/01/05 07:07:48;;;;;;;4.38;2.60;;;;;;;5.47;61.77;98341.97;5108742;28;20039;-71
2024/01/05 07:10:15;;;;;;;5.30;2.95;;;;;;;5.49;61.70;98342.75;5108161;28;20101;-71
2024/01/05 07:12:41;;;;;;;4.88;2.97;;;;;;;5.50;61.61;98342.66;5108128;28;20036;-70
2024/01/05 07:15:10;;;;;;;5.85;2.75;;;;;;;5.49;61.70;98340.97;5108363;28;20044;-71
2024/01/05 07:17:37;;;;;;;5.72;3.20;;;;;;;5.52;61.74;98329.44;5108067;28;20052;-71
2024/01/05 07:20:04;;;;;;;6.38;3.03;;;;;;;5.55;61.52;98318.78;5108255;28;20040;-71
2024/01/05 07:22:31;;;;;;;6.32;3.67;;;;;;;5.55;61.45;98324.88;5108141;28;20040;-70
2024/01/05 07:24:58;;;;;;;4.70;2.58;;;;;;;5.55;61.54;98322.25;5108116;28;20350;-70
2024/01/05 07:27:25;;;;;;;8.68;3.30;;;;;;;5.58;61.49;98324.72;5108612;28;20035;-70
2024/01/05 07:29:51;;;;;;;7.53;2.75;;;;;;;5.55;61.66;98319.63;5108008;28;20047;-70
2024/01/05 07:32:19;;;;;;;3.85;2.50;;;;;;;5.60;61.56;98322.00;5108181;28;20285;-70
2024/01/05 07:34:46;;;;;;;3.75;2.60;;;;;;;5.60;61.73;98316.75;5107694;28;20073;-70
2024/01/05 07:37:13;;;;;;;7.05;3.00;;;;;;;5.63;61.70;98317.44;5107643;28;20089;-70
2024/01/05 07:39:40;;;;;;;3.30;2.30;;;;;;;5.63;61.72;98304.31;5107925;28;20078;-70
2024/01/05 07:42:07;;;;;;;3.88;2.97;;;;;;;5.65;61.70;98306.84;5108320;28;20105;-71
2024/01/05 07:44:33;;;;;;;5.47;3.45;;;;;;;5.67;61.61;98302.38;5090175;28;20036;-71
2024/01/05 07:47:00;;;;;;;4.65;2.83;;;;;;;4.89;61.50;98172.41;5106371;28;20044;-70
2024/01/05 07:49:28;;;;;;;5.63;2.97;;;;;;;5.77;61.35;98314.97;5107591;28;20109;-71
2024/01/05 07:51:55;;;;;;;6.30;2.55;;;;;;;5.80;61.34;98316.56;5107539;28;20323;-70
2024/01/05 07:54:21;;;;;;;6.30;2.97;;;;;;;5.87;61.13;98311.84;5107320;28;20044;-70
2024/01/05 07:56:48;;;;;;;4.32;2.92;;;;;;;5.84;60.98;98317.25;5107736;28;20040;-70
2024/01/05 07:59:16;;;;;;;6.05;3.17;;;;;;;5.86;61.03;98316.25;5107997;28;20040;-70
2024/01/05 08:01:43;;;;;;;4.47;2.90;;;;;;;5.87;60.39;98312.69;5107541;28;20111;-70
2024/01/05 08:04:10;;;;;;;5.57;2.83;;;;;;;5.94;60.54;98306.19;5107397;28;20358;-70
2024/01/05 08:06:38;;;;;;;5.85;3.00;;;;;;;6.08;60.44;98308.06;5107340;28;20043;-70
2024/01/05 08:09:04;;;;;;;5.22;3.42;;;;;;;6.17;59.72;98309.38;5107428;28;20048;-71
2024/01/05 08:11:31;;;;;;;6.32;2.90;;;;;;;6.26;59.01;98311.50;5107397;28;20040;-71
2024/01/05 08:13:57;;;;;;;8.70;3.42;;;;;;;6.36;59.11;98308.28;5107136;28;20040;-70
2024/01/05 08:16:25;;;;;;;5.93;3.00;;;;;;;6.38;57.60;98302.94;5106635;28;20342;-70
2024/01/05 08:18:51;;;;;;;5.30;2.85;;;;;;;6.45;57.49;98299.03;5107099;28;20122;-70
2024/01/05 08:21:17;;;;;;;4.78;3.05;;;;;;;6.41;56.27;98298.34;5107327;28;20200;-71
2024/01/05 08:23:45;;;;;;;4.40;2.65;;;;;;;6.49;56.19;98295.28;5106679;28;20047;-70
2024/01/05 08:26:17;;;;;;;8.65;2.92;;;;;;;6.54;56.08;98281.88;5106948;28;20044;-71
2024/01/05 08:28:44;;;;;;;5.03;2.85;;;;;;;6.48;54.95;98287.50;5107188;28;20039;-71
2024/01/05 08:31:11;;;;;;;4.93;2.65;;;;;;;6.54;54.90;98279.25;5106588;28;20308;-70
2024/01/05 08:33:37;;;;;;;4.78;2.85;;;;;;;6.52;55.11;98275.84;5088980;28;20039;-71
2024/01/05 08:36:04;;;;;;;3.90;2.63;;;;;;;6.07;54.58;98212.53;5106802;28;20044;-70
2024/01/05 08:38:31;;;;;;;5.85;2.72;;;;;;;6.49;54.50;98289.19;5106489;28;20044;-71
2024/01/05 08:40:59;;;;;;;5.50;2.95;;;;;;;6.45;54.86;98291.13;5106658;28;20165;-71
2024/01/05 08:43:25;;;;;;;3.90;2.50;;;;;;;6.45;54.66;98299.03;5106623;28;20039;-71
2024/01/05 08:45:52;;;;;;;4.97;2.60;;;;;;;6.39;55.00;98296.75;5106659;28;20063;-70
2024/01/05 08:48:18;;;;;;;4.90;2.97;;;;;;;6.43;54.69;98306.16;5106562;28;20196;-71
2024/01/05 08:50:45;;;;;;;4.18;2.70;;;;;;;6.51;54.65;98313.63;5088403;28;20063;-70
2024/01/05 08:53:12;;;;;;;5.13;2.90;;;;;;;6.58;54.20;98310.59;5106664;28;20044;-71
2024/01/05 08:55:38;;;;;;;6.70;3.13;;;;;;;6.76;54.38;98306.06;5106637;28;20044;-71
2024/01/05 08:58:06;;;;;;;4.70;2.70;;;;;;;6.80;53.96;98309.38;5106191;28;20044;-71
2024/01/05 09:00:33;;;;;;;4.07;2.55;;;;;;;6.89;54.11;98312.38;5106570;28;20146;-70
2024/01/05 09:03:00;;;;;;;4.93;2.58;;;;;;;7.01;53.77;98305.56;5106038;28;20067;-71
2024/01/05 09:05:26;;;;;;;4.05;2.97;;;;;;;7.04;52.89;98302.75;5105917;28;20299;-71
2024/01/05 09:07:54;;;;;;;4.78;2.55;;;;;;;7.01;52.28;98308.19;5106189;28;20063;-71
2024/01/05 09:10:20;;;;;;;4.55;2.90;;;;;;;6.88;52.82;98286.13;5106517;28;20055;-71
2024/01/05 09:12:47;;;;;;;3.95;2.95;;;;;;;7.04;53.15;98290.44;5106115;28;20043;-71
2024/01/05 09:15:17;;;;;;;4.03;2.70;;;;;;;7.07;53.14;98295.53;5105938;28;20052;-70
2024/01/05 09:17:44;;;;;;;4.45;2.80;;;;;;;7.08;52.76;98296.38;5105976;28;20052;-71
2024/01/05 09:20:12;;;;;;;4.95;2.70;;;;;;;6.96;52.85;98292.66;5105748;28;20092;-71
2024/01/05 09:22:38;;;;;;;5.20;3.28;;;;;;;6.91;52.69;98296.50;5105851;28;20040;-70
2024/01/05 09:25:07;;;;;;;4.60;3.22;;;;;;;6.98;53.09;98295.19;5105574;28;20036;-71
2024/01/05 09:27:34;;;;;;;3.60;2.53;;;;;;;7.01;52.79;98287.13;5106128;28;20044;-71
2024/01/05 09:30:01;;;;;;;4.28;2.40;;;;;;;7.01;53.00;98284.50;5105706;28;20101;-71
2024/01/05 09:32:31;;;;;;;3.95;2.80;;;;;;;6.90;52.78;98292.16;5105521;28;20048;-71
2024/01/05 09:34:57;;;;;;;5.03;3.15;;;;;;;6.79;52.96;98286.63;5105795;28;20051;-71
2024/01/05 09:37:24;;;;;;;5.68;3.58;;;;;;;6.77;53.07;98286.72;5105548;28;20048;-71
2024/01/05 09:39:52;;;;;;;6.05;3.33;;;;;;;6.80;53.30;98285.69;5105742;28;20040;-71
2024/01/05 09:42:19;;;;;;;4.88;3.33;;;;;;;6.83;53.53;98275.00;5105785;28;20060;-71
2024/01/05 09:44:46;;;;;;;5.35;3.00;;;;;;;6.63;53.34;98252.41;5087493;28;20227;-71
2024/01/05 09:47:14;;;;;;;5.35;3.00;;;;;;;6.78;53.53;98253.31;5105979;28;20214;-71
2024/01/05 09:49:44;;;;;;;6.22;3.50;;;;;;;6.79;53.80;98255.88;5085003;28;20102;-71
2024/01/05 09:52:13;;;;;;;7.13;3.53;;;;;;;6.77;53.76;98246.34;5085742;28;20060;-71
2024/01/05 09:54:39;;;;;;;6.60;3.53;;;;;;;6.72;54.16;98254.53;5085756;28;20040;-71
2024/01/05 09:57:08;;;;;;;5.90;3.67;;;;;;;6.78;54.17;98242.78;5084581;28;20037;-71
2024/01/05 09:59:35;;;;;;;5.07;3.47;;;;;;;6.74;54.33;98244.75;5085357;28;20052;-71
2024/01/05 10:02:05;;;;;;;4.68;3.35;;;;;;;6.80;54.37;98231.25;5084830;28;20048;-71
2024/01/05 10:04:31;;;;;;;6.32;3.42;;;;;;;6.80;54.48;98228.63;5085300;28;20071;-70
2024/01/05 10:07:03;;;;;;;4.78;3.03;;;;;;;6.83;54.61;98209.16;5085364;28;20063;-71
2024/01/05 10:09:31;;;;;;;5.55;3.50;;;;;;;6.81;54.55;98213.69;5085993;28;20045;-70
2024/01/05 10:11:58;;;;;;;9.43;3.80;;;;;;;6.69;55.07;98202.03;5089326;28;20056;-71
2024/01/05 10:14:26;;;;;;;5.50;3.40;;;;;;;6.82;54.98;98212.75;5089003;28;20247;-71
2024/01/05 10:17:07;;;;;;;5.50;3.63;;;;;;;6.91;54.87;98206.94;5089135;28;20041;-70
2024/01/05 10:19:35;;;;;;;7.55;4.10;;;;;;;7.00;54.85;98201.13;5089093;28;20052;-71
2024/01/05 10:22:09;;;;;;;4.88;3.60;;;;;;;7.00;54.86;98199.34;5087916;28;20032;-70
2024/01/05 10:24:36;;;;;;;6.28;4.10;;;;;;;6.85;55.84;98199.38;5088937;28;20054;-71
2024/01/05 10:27:04;;;;;;;6.68;5.00;;;;;;;6.79;56.39;98182.13;5088154;28;20040;-71
2024/01/05 10:29:31;;;;;;;7.90;5.53;;;;;;;6.81;56.88;98189.97;5088926;28;20102;-71
2024/01/05 10:32:10;;;;;;;10.05;6.40;;;;;;;6.90;56.92;98189.44;5088655;28;20075;-71
2024/01/05 10:34:37;;;;;;;8.35;5.75;;;;;;;6.79;57.14;98176.88;5088805;28;20040;-71
2024/01/05 10:37:05;;;;;;;10.80;7.20;;;;;;;6.89;57.61;98188.59;5088707;28;20048;-71
2024/01/05 10:39:32;;;;;;;9.20;7.60;;;;;;;6.83;58.46;98193.38;5088363;28;20090;-70
2024/01/05 10:42:20;;;;;;;11.75;7.50;;;;;;;6.88;58.50;98180.78;5088700;28;20116;-71
2024/01/05 10:44:49;;;;;;;10.63;7.88;;;;;;;6.86;58.99;98175.59;5088190;28;20052;-71
2024/01/05 10:47:16;;;;;;;11.90;8.15;;;;;;;6.90;58.99;98176.25;5088429;28;20071;-71
2024/01/05 10:49:46;;;;;;;10.57;7.45;;;;;;;7.02;58.77;98175.53;5094143;28;20059;-71
2024/01/05 10:52:16;;;;;;;10.48;7.97;;;;;;;7.00;58.91;98165.09;5108827;28;20067;-71
2024/01/05 10:54:45;;;;;;;10.00;7.90;;;;;;;6.98;59.02;98147.69;5108636;28;20047;-71
2024/01/05 10:57:14;;;;;;;12.23;8.60;;;;;;;6.96;59.09;98142.50;5108447;28;20044;-70
2024/01/05 10:59:44;;;;;;;10.48;8.25;;;;;;;6.89;58.67;98109.56;5108547;28;20052;-71
2024/01/05 11:02:19;;;;;;;12.38;8.90;;;;;;;6.84;58.93;98106.38;5108255;28;20368;-71
2024/01/05 11:04:48;;;;;;;11.30;8.02;;;;;;;7.08;58.82;98135.66;5108349;28;20120;-71
2024/01/05 11:07:18;;;;;;;13.35;7.88;;;;;;;7.16;59.09;98125.50;5108230;28;20055;-71
2024/01/05 11:09:54;;;;;;;9.52;7.15;;;;;;;7.34;58.86;98116.50;5107649;28;20055;-70
2024/01/05 11:12:34;;;;;;;12.90;8.65;;;;;;;7.46;57.83;98107.00;5107883;28;20301;-71
2024/01/05 11:15:17;;;;;;;10.77;8.23;;;;;;;7.44;58.52;98114.16;5108207;28;20059;-70
2024/01/05 11:18:12;;;;;;;8.23;6.10;;;;;;;7.55;58.37;98092.38;5108097;28;20054;-71
2024/01/05 11:21:02;;;;;;;9.20;7.05;;;;;;;7.68;57.95;98078.31;5107884;28;20296;-71
2024/01/05 11:23:32;;;;;;;8.48;7.10;;;;;;;7.67;57.71;98079.28;5107875;28;20039;-71
2024/01/05 11:25:59;;;;;;;8.77;7.03;;;;;;;7.73;57.83;98070.13;5108157;28;20052;-71
2024/01/05 11:28:36;;;;;;;9.63;8.30;;;;;;;7.22;57.44;97982.84;5107845;28;20055;-71
2024/01/05 11:31:03;;;;;;;10.60;8.00;;;;;;;7.80;57.58;98070.56;5108189;28;20047;-70
2024/01/05 11:33:45;;;;;;;9.38;7.55;;;;;;;7.82;57.38;98060.78;5107653;28;20044;-71
2024/01/05 11:36:12;;;;;;;11.38;8.20;;;;;;;7.79;56.99;98058.34;5107673;28;20119;-71
2024/01/05 11:38:44;;;;;;;12.75;8.13;;;;;;;7.82;57.14;98050.22;5107843;28;20043;-71
2024/01/05 11:41:18;;;;;;;10.65;8.10;;;;;;;7.88;56.98;98042.75;5107986;28;20098;-71
2024/01/05 11:43:44;;;;;;;10.80;8.07;;;;;;;7.81;56.69;98043.25;5107776;28;20043;-71